createdAt,value
2019-05-17T07:47:40.936Z,-141.36
2019-05-17T07:50:11.305Z,-141.36
2019-05-17T07:52:39.912Z,-141.36
2019-05-17T07:59:39.721Z,-141.36
2019-05-17T08:57:31.864Z,29.15
2019-05-17T09:00:05.058Z,25.50
2019-05-17T09:02:35.904Z,25.07
2019-05-17T09:50:12.493Z,25.54
2019-05-17T09:54:45.762Z,28.82
2019-05-17T09:57:14.235Z,30.56
2019-05-17T09:59:43.367Z,29.40
2019-05-17T10:02:11.591Z,27.09
2019-05-17T10:04:40.071Z,26.53
2019-05-17T10:07:10.235Z,26.18
2019-05-17T10:09:40.021Z,25.98
2019-05-17T10:12:09.545Z,25.80
2019-05-17T10:14:38.773Z,25.63
2019-05-17T10:17:09.726Z,25.52
2019-05-17T10:19:40.039Z,25.41
2019-05-17T10:22:10.184Z,25.41
2019-05-17T10:24:39.670Z,25.37
2019-05-17T10:27:10.739Z,25.31
2019-05-17T10:29:39.493Z,25.30
2019-05-17T10:32:10.345Z,25.21
2019-05-17T10:34:40.009Z,25.21
2019-05-17T10:37:10.306Z,25.22
2019-05-17T10:39:41.167Z,25.14
2019-05-17T10:42:10.033Z,25.01
2019-05-17T10:44:44.329Z,24.97
2019-05-17T10:47:10.059Z,24.93
2019-05-17T10:49:40.138Z,24.87
2019-05-17T10:52:09.509Z,24.86
2019-05-17T10:54:40.237Z,24.80
2019-05-17T10:57:10.497Z,24.74
2019-05-17T10:59:39.675Z,24.73
2019-05-17T11:02:09.950Z,24.70
2019-05-17T11:04:40.187Z,24.65
2019-05-17T11:07:10.417Z,24.74
2019-05-17T11:09:40.289Z,24.86
2019-05-17T11:12:08.973Z,24.85
2019-05-17T11:14:52.261Z,24.79
2019-05-17T11:17:18.346Z,24.75
2019-05-17T11:21:54.500Z,25.92
2019-05-17T11:24:23.043Z,30.03
2019-05-17T11:26:56.356Z,27.88
2019-05-17T11:29:26.549Z,25.74
2019-05-17T11:31:57.698Z,25.34
2019-05-17T11:34:27.436Z,25.18
2019-05-17T11:36:57.206Z,25.15
2019-05-17T11:39:26.596Z,25.14
2019-05-17T11:41:59.755Z,25.09
2019-05-17T11:44:29.333Z,25.10
2019-05-17T11:46:58.617Z,25.09
2019-05-17T11:49:31.918Z,25.11
2019-05-17T11:52:01.682Z,25.13
2019-05-17T11:54:35.076Z,25.05
2019-05-17T11:57:12.191Z,25.11
2019-05-17T11:59:41.128Z,25.08
2019-05-17T12:02:12.498Z,25.05
2019-05-17T12:04:45.840Z,25.05
2019-05-17T12:07:19.221Z,24.98
2019-05-17T12:09:47.574Z,24.99
2019-05-17T12:12:20.655Z,24.99
2019-05-17T12:14:54.135Z,24.97
2019-05-17T12:17:23.201Z,28.89
2019-05-17T12:19:54.377Z,25.05
2019-05-17T12:22:27.653Z,24.75
2019-05-17T12:25:01.052Z,24.76
2019-05-17T12:27:34.670Z,24.77
2019-05-17T12:30:04.517Z,24.75
2019-05-17T12:32:37.922Z,24.78
2019-05-17T12:35:07.058Z,24.64
2019-05-17T12:37:37.239Z,24.75
2019-05-17T12:40:10.420Z,24.77
2019-05-17T12:42:39.534Z,24.85
2019-05-17T12:45:12.844Z,24.82
2019-05-17T12:55:00.469Z,26.85
2019-05-17T12:57:29.599Z,26.13
2019-05-17T12:59:59.212Z,25.87
2019-05-17T13:02:28.319Z,25.63
2019-05-17T13:04:57.357Z,25.46
2019-05-17T13:07:27.831Z,25.40
2019-05-17T13:09:57.164Z,25.53
2019-05-17T13:12:27.423Z,25.43
2019-05-17T13:14:57.357Z,25.55
2019-05-17T13:17:27.538Z,25.49
2019-05-17T13:20:00.525Z,25.40
2019-05-17T13:22:33.892Z,25.38
2019-05-17T13:25:06.070Z,25.39
2019-05-17T13:27:38.581Z,25.48
2019-05-17T13:30:05.364Z,25.47
2019-05-17T13:32:34.206Z,25.53
2019-05-17T13:35:03.413Z,25.60
2019-05-17T13:37:37.924Z,25.70
2019-05-17T13:40:11.068Z,25.71
2019-05-17T13:42:40.308Z,25.74
2019-05-17T13:45:11.043Z,25.58
2019-05-17T13:47:39.854Z,25.52
2019-05-17T13:50:08.905Z,25.47
2019-05-17T13:52:42.608Z,25.43
2019-05-17T13:55:11.884Z,25.35
2019-05-17T13:57:40.921Z,25.33
2019-05-17T14:00:13.521Z,25.32
2019-05-17T14:02:47.173Z,25.32
2019-05-17T14:05:20.703Z,25.30
2019-05-17T14:07:50.878Z,25.30
2019-05-17T14:10:27.623Z,25.28
2019-05-17T14:12:50.684Z,25.24
2019-05-17T14:59:45.800Z,22.67
2019-05-17T15:02:13.646Z,21.64
2019-05-17T15:04:41.339Z,20.86
2019-05-17T15:07:11.281Z,20.57
2019-05-17T15:09:38.390Z,20.38
2019-05-17T15:12:06.112Z,20.15
2019-05-17T15:14:33.773Z,20.28
2019-05-17T15:17:01.463Z,20.06
2019-05-17T15:19:29.220Z,19.96
2019-05-17T15:21:56.872Z,19.93
2019-05-17T15:24:24.541Z,19.70
2019-05-17T15:27:04.745Z,19.67
2019-05-17T15:29:21.654Z,19.71
2019-05-17T15:31:52.002Z,19.93
2019-05-17T15:34:18.745Z,20.04
2019-05-17T15:36:46.425Z,19.92
2019-05-17T15:39:14.080Z,19.83
2019-05-17T15:41:41.785Z,19.91
2019-05-17T15:44:09.454Z,19.72
2019-05-17T15:46:37.113Z,19.77
2019-05-17T15:49:04.796Z,19.80
2019-05-17T15:51:32.653Z,19.83
2019-05-17T15:54:00.293Z,19.79
2019-05-17T15:56:27.950Z,19.87
2019-05-17T15:58:55.990Z,19.75
2019-05-17T16:01:23.647Z,19.83
2019-05-17T16:03:51.307Z,19.94
2019-05-17T16:06:19.006Z,19.97
2019-05-17T16:08:46.740Z,19.83
2019-05-17T16:11:14.407Z,19.87
2019-05-17T16:13:42.081Z,19.78
2019-05-17T16:16:09.733Z,19.70
2019-05-17T16:18:37.493Z,19.73
2019-05-17T16:21:05.169Z,19.71
2019-05-17T16:23:32.857Z,19.64
2019-05-17T16:26:00.495Z,19.69
2019-05-17T16:28:28.169Z,19.63
2019-05-17T16:30:55.928Z,19.65
2019-05-17T16:33:23.581Z,19.78
2019-05-17T16:35:51.227Z,19.69
2019-05-17T16:38:18.892Z,19.68
2019-05-17T16:40:46.526Z,19.61
2019-05-17T16:43:18.235Z,19.55
2019-05-17T16:45:43.753Z,19.54
2019-05-17T16:48:11.422Z,19.55
2019-05-17T16:50:39.088Z,19.52
2019-05-17T16:53:06.764Z,19.46
2019-05-17T16:55:34.484Z,19.47
2019-05-17T16:58:02.243Z,19.48
2019-05-17T17:00:30.095Z,19.33
2019-05-17T17:02:57.746Z,19.48
2019-05-17T17:05:25.427Z,19.40
2019-05-17T17:07:53.360Z,19.34
2019-05-17T17:10:21.179Z,19.38
2019-05-17T17:12:48.941Z,19.34
2019-05-17T17:15:16.584Z,19.34
2019-05-17T17:17:44.235Z,19.29
2019-05-17T17:20:11.884Z,19.29
2019-05-17T17:22:39.539Z,19.24
2019-05-17T17:25:07.273Z,19.18
2019-05-17T17:27:34.935Z,19.09
2019-05-17T17:30:02.585Z,19.12
2019-05-17T17:32:30.224Z,19.15
2019-05-17T17:34:57.863Z,19.06
2019-05-17T17:37:25.605Z,18.97
2019-05-17T17:39:53.545Z,18.97
2019-05-17T17:42:21.301Z,19.03
2019-05-17T17:44:48.965Z,18.88
2019-05-17T17:47:16.681Z,18.96
2019-05-17T17:49:44.336Z,18.88
2019-05-17T17:52:11.989Z,18.96
2019-05-17T17:54:39.642Z,18.81
2019-05-17T17:57:07.301Z,18.87
2019-05-17T17:59:35.033Z,18.74
2019-05-17T18:02:02.682Z,18.67
2019-05-17T18:04:30.338Z,18.60
2019-05-17T18:06:58.072Z,18.42
2019-05-17T18:09:25.723Z,18.41
2019-05-17T18:11:53.468Z,18.38
2019-05-17T18:14:21.120Z,18.40
2019-05-17T18:16:48.775Z,18.31
2019-05-17T18:19:16.418Z,18.35
2019-05-17T18:21:44.079Z,18.28
2019-05-17T18:24:11.741Z,18.13
2019-05-17T18:26:39.451Z,18.01
2019-05-17T18:29:08.095Z,18.03
2019-05-17T18:31:35.986Z,17.99
2019-05-17T18:34:03.642Z,17.85
2019-05-17T18:36:31.292Z,17.85
2019-05-17T18:38:58.929Z,17.72
2019-05-17T18:41:26.591Z,17.70
2019-05-17T18:43:54.231Z,17.68
2019-05-17T18:46:21.894Z,17.56
2019-05-17T18:48:49.531Z,17.57
2019-05-17T18:51:17.188Z,17.47
2019-05-17T18:53:44.834Z,17.40
2019-05-17T18:56:12.524Z,17.22
2019-05-17T18:58:40.166Z,17.21
2019-05-17T19:01:07.828Z,17.06
2019-05-17T19:03:35.480Z,16.99
2019-05-17T19:06:03.140Z,16.89
2019-05-17T19:08:30.788Z,16.74
2019-05-17T19:10:58.456Z,16.53
2019-05-17T19:13:26.115Z,16.46
2019-05-17T19:15:53.789Z,16.31
2019-05-17T19:18:21.436Z,16.05
2019-05-17T19:20:49.109Z,16.22
2019-05-17T19:23:16.776Z,16.01
2019-05-17T19:25:44.442Z,15.63
2019-05-17T19:28:12.182Z,15.43
2019-05-17T19:30:39.830Z,15.58
2019-05-17T19:33:07.867Z,15.22
2019-05-17T19:35:35.519Z,15.26
2019-05-17T19:38:03.242Z,15.15
2019-05-17T19:40:30.940Z,15.41
2019-05-17T19:42:58.591Z,15.23
2019-05-17T19:45:26.244Z,15.19
2019-05-17T19:47:53.884Z,15.39
2019-05-17T19:50:21.532Z,15.10
2019-05-17T19:52:49.191Z,14.81
2019-05-17T19:55:16.847Z,14.81
2019-05-17T19:57:44.487Z,14.92
2019-05-17T20:00:12.316Z,14.84
2019-05-17T20:02:39.996Z,14.97
2019-05-17T20:05:07.653Z,15.05
2019-05-17T20:07:38.538Z,14.77
2019-05-17T20:10:04.704Z,14.54
2019-05-17T20:12:32.361Z,14.23
2019-05-17T20:15:15.954Z,14.29
2019-05-17T20:17:29.388Z,14.56
2019-05-17T20:19:57.024Z,14.23
2019-05-17T20:22:24.682Z,13.99
2019-05-17T20:24:52.335Z,14.10
2019-05-17T20:27:19.989Z,13.99
2019-05-17T20:29:47.619Z,14.10
2019-05-17T20:32:15.285Z,13.78
2019-05-17T20:34:42.938Z,13.65
2019-05-17T20:37:10.638Z,13.61
2019-05-17T20:39:38.282Z,13.79
2019-05-17T20:42:05.952Z,13.63
2019-05-17T20:44:33.593Z,13.52
2019-05-17T20:47:01.309Z,13.62
2019-05-17T20:49:28.947Z,13.56
2019-05-17T20:51:56.613Z,13.48
2019-05-17T20:54:24.256Z,13.36
2019-05-17T20:56:51.920Z,13.18
2019-05-17T20:59:19.647Z,13.04
2019-05-17T21:01:47.313Z,13.04
2019-05-17T21:04:14.964Z,12.99
2019-05-17T21:06:42.616Z,12.68
2019-05-17T21:09:10.268Z,12.95
2019-05-17T21:11:37.928Z,12.73
2019-05-17T21:14:05.580Z,12.65
2019-05-17T21:16:33.235Z,12.71
2019-05-17T21:19:00.891Z,12.53
2019-05-17T21:21:28.664Z,12.61
2019-05-17T21:23:56.324Z,12.33
2019-05-17T21:26:23.984Z,12.54
2019-05-17T21:28:51.649Z,12.39
2019-05-17T21:31:19.307Z,12.73
2019-05-17T21:33:46.969Z,12.26
2019-05-17T21:36:14.614Z,12.28
2019-05-17T21:38:42.271Z,12.21
2019-05-17T21:41:09.999Z,12.05
2019-05-17T21:43:37.669Z,12.20
2019-05-17T21:46:05.333Z,12.39
2019-05-17T21:48:33.003Z,12.41
2019-05-17T21:51:00.666Z,12.63
2019-05-17T21:53:28.349Z,12.82
2019-05-17T21:55:56.088Z,12.60
2019-05-17T21:58:23.748Z,12.62
2019-05-17T22:00:53.094Z,12.41
2019-05-17T22:03:20.767Z,12.52
2019-05-17T22:05:48.417Z,12.43
2019-05-17T22:08:16.123Z,12.44
2019-05-17T22:10:43.780Z,12.41
2019-05-17T22:13:11.449Z,12.18
2019-05-17T22:15:39.164Z,12.12
2019-05-17T22:18:06.834Z,11.92
2019-05-17T22:20:34.485Z,11.83
2019-05-17T22:23:02.235Z,11.60
2019-05-17T22:25:29.908Z,11.64
2019-05-17T22:27:57.601Z,11.75
2019-05-17T22:30:25.393Z,11.66
2019-05-17T22:32:53.052Z,11.54
2019-05-17T22:35:20.730Z,11.40
2019-05-17T22:37:48.383Z,11.29
2019-05-17T22:40:16.092Z,11.29
2019-05-17T22:42:43.821Z,11.67
2019-05-17T22:45:11.550Z,11.53
2019-05-17T22:47:39.204Z,11.60
2019-05-17T22:50:06.872Z,11.26
2019-05-17T22:52:34.530Z,11.24
2019-05-17T22:55:02.221Z,10.94
2019-05-17T22:57:29.879Z,11.17
2019-05-17T22:59:57.539Z,11.26
2019-05-17T23:02:25.194Z,11.12
2019-05-17T23:04:52.860Z,11.28
2019-05-17T23:07:20.524Z,11.21
2019-05-17T23:09:48.199Z,11.07
2019-05-17T23:12:15.848Z,10.93
2019-05-17T23:14:43.555Z,10.86
2019-05-17T23:17:11.215Z,10.97
2019-05-17T23:19:38.877Z,10.74
2019-05-17T23:22:06.538Z,10.83
2019-05-17T23:24:34.205Z,10.75
2019-05-17T23:27:01.868Z,10.85
2019-05-17T23:29:29.749Z,10.63
2019-05-17T23:31:57.469Z,10.68
2019-05-17T23:34:25.122Z,10.53
2019-05-17T23:36:52.789Z,10.62
2019-05-17T23:39:20.516Z,10.31
2019-05-17T23:41:48.187Z,10.58
2019-05-17T23:44:15.862Z,10.28
2019-05-17T23:46:43.561Z,10.34
2019-05-17T23:49:11.227Z,10.38
2019-05-17T23:51:38.877Z,10.39
2019-05-17T23:54:06.536Z,10.15
2019-05-17T23:56:34.194Z,10.35
2019-05-17T23:59:01.894Z,10.18
